createdAt,value
2017-05-05T00:00:46.583Z,72.30
2017-05-05T00:03:13.599Z,71.80
2017-05-05T00:05:40.578Z,71.80
2017-05-05T00:17:52.554Z,70.70
2017-05-05T00:20:19.468Z,71.30
2017-05-05T00:22:46.386Z,71.50
2017-05-05T00:25:15.094Z,71.40
2017-05-05T00:27:42.055Z,71.70
2017-05-05T00:30:09.061Z,71.60
2017-05-05T00:32:36.862Z,71.80
2017-05-05T00:35:03.805Z,71.90
2017-05-05T00:37:30.796Z,71.80
2017-05-05T00:39:57.745Z,71.50
2017-05-05T00:42:24.720Z,71.90
2017-05-05T00:44:52.473Z,71.80
2017-05-05T00:47:21.054Z,72.50
2017-05-05T00:49:48.049Z,72.10
2017-05-05T00:52:15.038Z,71.60
2017-05-05T00:54:42.070Z,71.60
2017-05-05T00:57:09.118Z,71.60
2017-05-05T00:59:36.151Z,71.70
2017-05-05T01:02:03.121Z,71.70
2017-05-05T01:04:30.055Z,71.90
2017-05-05T01:06:56.999Z,72.20
2017-05-05T01:09:23.947Z,71.60
2017-05-05T01:11:50.963Z,72.50
2017-05-05T01:14:17.994Z,72.30
2017-05-05T01:16:44.997Z,72.70
2017-05-05T01:19:12.009Z,72.80
2017-05-05T01:21:38.588Z,72.10
2017-05-05T01:24:05.578Z,73.10
2017-05-05T01:26:32.531Z,72.80
2017-05-05T01:28:59.591Z,72.90
2017-05-05T01:31:26.561Z,73.30
2017-05-05T01:43:38.530Z,73.10
2017-05-05T01:46:05.479Z,73.40
2017-05-05T01:48:32.426Z,74.50
2017-05-05T01:50:59.523Z,73.60
2017-05-05T01:53:26.497Z,74.30
2017-05-05T01:55:54.196Z,74.30
2017-05-05T01:58:21.262Z,74.30
2017-05-05T02:00:48.963Z,74.60
2017-05-05T02:03:15.912Z,74.30
2017-05-05T02:05:42.887Z,74.30
2017-05-05T02:08:09.887Z,74.00
2017-05-05T02:10:36.820Z,74.30
2017-05-05T02:13:04.567Z,74.30
2017-05-05T02:15:32.273Z,74.70
2017-05-05T02:17:59.293Z,74.40
2017-05-05T02:20:26.997Z,74.80
2017-05-05T02:22:53.932Z,74.90
2017-05-05T02:25:20.991Z,74.80
2017-05-05T02:30:15.894Z,75.20
2017-05-05T02:32:43.448Z,74.40
2017-05-05T02:35:10.392Z,74.70
2017-05-05T02:37:37.907Z,75.10
2017-05-05T02:40:04.891Z,75.40
2017-05-05T02:42:31.841Z,75.30
2017-05-05T02:44:58.863Z,75.30
2017-05-05T02:47:26.526Z,75.60
2017-05-05T02:49:53.446Z,75.30
2017-05-05T02:52:20.444Z,75.60
2017-05-05T02:54:47.453Z,76.30
2017-05-05T02:57:15.142Z,76.30
2017-05-05T02:59:42.868Z,75.80
2017-05-05T03:02:09.815Z,75.70
2017-05-05T03:04:36.821Z,75.80
2017-05-05T03:07:03.891Z,74.70
2017-05-05T03:22:31.807Z,74.60
2017-05-05T03:24:59.063Z,74.20
2017-05-05T03:27:26.827Z,73.90
2017-05-05T03:29:54.531Z,73.80
2017-05-05T03:32:21.474Z,74.10
2017-05-05T03:34:48.500Z,74.50
2017-05-05T03:37:15.752Z,74.60
2017-05-05T03:39:42.724Z,74.50
2017-05-05T03:42:09.636Z,74.40
2017-05-05T03:44:36.551Z,73.80
2017-05-05T03:47:04.284Z,74.20
2017-05-05T03:49:31.255Z,74.20
2017-05-05T03:51:58.187Z,74.60
2017-05-05T03:54:25.588Z,74.50
2017-05-05T03:56:52.514Z,73.90
2017-05-05T03:59:19.469Z,74.50
2017-05-05T04:01:47.183Z,74.50
2017-05-05T04:04:14.411Z,74.50
2017-05-05T04:06:42.398Z,74.00
2017-05-05T04:09:11.127Z,73.80
2017-05-05T04:11:38.963Z,73.90
2017-05-05T04:14:05.970Z,73.90
2017-05-05T04:16:32.951Z,74.10
2017-05-05T04:19:00.004Z,74.00
2017-05-05T04:21:26.969Z,74.50
2017-05-05T04:23:53.960Z,73.70
2017-05-05T04:26:20.961Z,73.60
2017-05-05T04:28:47.943Z,72.50
2017-05-05T04:31:15.645Z,71.80
2017-05-05T04:33:42.580Z,71.60
2017-05-05T04:36:09.556Z,71.90
2017-05-05T04:48:22.043Z,74.60
2017-05-05T04:50:49.347Z,73.20
2017-05-05T04:53:16.361Z,73.20
2017-05-05T04:55:43.345Z,72.50
2017-05-05T04:58:10.835Z,72.70
2017-05-05T05:00:37.790Z,72.20
2017-05-05T05:12:50.429Z,72.80
2017-05-05T05:15:17.498Z,73.40
2017-05-05T05:17:44.840Z,73.00
2017-05-05T05:20:11.486Z,72.30
2017-05-05T05:22:38.463Z,73.20
2017-05-05T05:25:05.409Z,73.50
2017-05-05T05:27:32.365Z,73.20
2017-05-05T05:29:59.378Z,73.60
2017-05-05T05:32:26.440Z,73.80
2017-05-05T05:34:54.263Z,73.00
2017-05-05T05:42:17.403Z,71.60
2017-05-05T05:44:44.390Z,71.50
2017-05-05T05:47:12.111Z,70.50
2017-05-05T05:49:39.989Z,70.80
2017-05-05T05:52:06.964Z,70.50
2017-05-05T05:54:34.699Z,70.50
2017-05-05T05:57:01.739Z,70.60
2017-05-05T06:12:32.570Z,70.10
2017-05-05T06:14:59.684Z,69.90
2017-05-05T06:17:28.324Z,69.50
2017-05-05T06:19:55.311Z,69.50
2017-05-05T06:22:24.002Z,69.30
2017-05-05T06:24:51.009Z,69.20
2017-05-05T06:27:18.241Z,69.50
2017-05-05T06:29:45.860Z,69.30
2017-05-05T06:32:12.876Z,68.80
2017-05-05T06:34:40.577Z,67.80
2017-05-05T06:46:52.627Z,67.90
2017-05-05T06:49:19.674Z,67.90
2017-05-05T06:51:47.409Z,67.60
2017-05-05T06:54:14.432Z,67.90
2017-05-05T06:56:41.751Z,67.80
2017-05-05T06:59:09.109Z,68.00
2017-05-05T07:01:36.064Z,67.70
2017-05-05T07:04:03.637Z,68.00
2017-05-05T07:06:30.681Z,66.70
2017-05-05T07:08:58.616Z,67.50
2017-05-05T07:11:26.341Z,66.50
2017-05-05T07:13:53.330Z,66.30
2017-05-05T07:16:20.263Z,66.40
2017-05-05T07:18:47.991Z,66.00
2017-05-05T07:21:15.053Z,66.60
2017-05-05T07:23:42.073Z,65.30
2017-05-05T07:26:09.037Z,65.20
2017-05-05T07:28:36.052Z,65.50
2017-05-05T07:31:03.781Z,65.60
2017-05-05T07:33:31.525Z,65.60
2017-05-05T07:35:58.499Z,65.50
2017-05-05T07:38:26.196Z,65.70
2017-05-05T07:40:53.426Z,65.60
2017-05-05T07:43:20.427Z,65.20
2017-05-05T07:45:47.399Z,65.90
2017-05-05T07:48:14.418Z,65.70
2017-05-05T07:50:41.376Z,65.50
2017-05-05T07:53:08.353Z,65.00
2017-05-05T07:55:36.082Z,64.90
2017-05-05T07:58:03.059Z,65.10
2017-05-05T08:00:30.064Z,63.60
2017-05-05T08:02:57.026Z,63.70
2017-05-05T08:05:23.950Z,63.50
2017-05-05T08:07:50.995Z,62.50
2017-05-05T08:10:17.953Z,62.20
2017-05-05T08:12:44.924Z,64.70
2017-05-05T08:15:11.933Z,61.70
2017-05-05T08:17:38.946Z,62.00
2017-05-05T08:20:05.917Z,63.20
2017-05-05T08:25:01.884Z,64.00
2017-05-05T08:27:30.061Z,64.30
2017-05-05T08:29:58.068Z,63.20
2017-05-05T08:32:26.663Z,62.20
2017-05-05T08:34:53.667Z,61.70
2017-05-05T08:37:20.670Z,62.00
2017-05-05T08:39:47.593Z,61.30
2017-05-05T08:42:15.953Z,61.40
2017-05-05T08:44:42.919Z,62.20
2017-05-05T08:47:09.920Z,61.40
2017-05-05T08:49:37.884Z,61.50
2017-05-05T08:52:04.869Z,61.70
2017-05-05T08:54:31.986Z,60.00
2017-05-05T08:56:59.942Z,60.90
2017-05-05T08:59:26.886Z,59.80
2017-05-05T09:01:53.847Z,61.70
2017-05-05T09:04:20.769Z,59.90
2017-05-05T09:06:47.728Z,60.50
2017-05-05T09:09:14.729Z,59.70
2017-05-05T09:11:42.419Z,61.00
2017-05-05T09:14:09.424Z,62.00
2017-05-05T09:16:37.134Z,62.00
2017-05-05T09:19:04.184Z,60.40
2017-05-05T09:24:00.351Z,60.60
2017-05-05T09:26:27.303Z,61.00
2017-05-05T09:28:54.243Z,59.00
2017-05-05T09:31:22.231Z,58.10
2017-05-05T09:33:49.582Z,58.60
2017-05-05T09:36:16.634Z,59.80
2017-05-05T09:38:44.415Z,59.60
2017-05-05T09:41:12.780Z,61.00
2017-05-05T09:43:40.617Z,60.10
2017-05-05T09:46:07.621Z,59.70
2017-05-05T09:48:35.991Z,59.70
2017-05-05T09:51:03.750Z,59.00
2017-05-05T10:03:17.650Z,56.90
2017-05-05T10:05:44.795Z,58.00
2017-05-05T10:08:11.982Z,59.20
2017-05-05T10:10:39.182Z,56.40
2017-05-05T10:13:07.668Z,57.60
2017-05-05T10:15:35.649Z,55.10
2017-05-05T10:18:02.623Z,56.30
2017-05-05T10:20:30.329Z,56.50
2017-05-05T10:22:58.163Z,54.90
2017-05-05T10:25:25.205Z,56.20
2017-05-05T10:27:52.911Z,57.10
2017-05-05T10:30:19.891Z,54.90
2017-05-05T10:32:47.829Z,56.30
2017-05-05T10:35:14.795Z,55.20
2017-05-05T10:37:41.743Z,55.00
2017-05-05T10:40:08.852Z,54.40
2017-05-05T10:42:36.287Z,54.40
2017-05-05T10:45:04.026Z,55.30
2017-05-05T10:47:30.974Z,55.20
2017-05-05T10:49:58.688Z,55.10
2017-05-05T10:52:25.677Z,54.80
2017-05-05T10:54:52.626Z,53.80
2017-05-05T10:57:21.955Z,55.00
2017-05-05T10:59:50.300Z,55.10
2017-05-05T11:02:17.227Z,56.40
2017-05-05T11:04:45.147Z,54.40
2017-05-05T11:07:13.570Z,54.60
2017-05-05T11:09:40.507Z,53.60
2017-05-05T11:12:10.007Z,55.80
2017-05-05T11:14:37.032Z,56.40
2017-05-05T11:17:05.996Z,56.80
2017-05-05T11:19:37.024Z,55.70
2017-05-05T11:22:06.140Z,57.70
2017-05-05T11:24:34.865Z,54.70
2017-05-05T11:27:05.158Z,53.70
2017-05-05T11:29:35.645Z,55.50
2017-05-05T11:32:05.274Z,55.60
2017-05-05T11:34:36.278Z,53.60
2017-05-05T11:37:07.769Z,55.40
2017-05-05T11:39:39.187Z,53.10
2017-05-05T11:42:08.567Z,52.90
2017-05-05T11:44:36.939Z,54.90
2017-05-05T11:47:04.722Z,55.10
2017-05-05T11:49:33.524Z,56.20
2017-05-05T11:52:00.488Z,55.20
2017-05-05T11:54:27.480Z,55.10
2017-05-05T11:56:55.171Z,55.00
2017-05-05T11:59:22.780Z,55.70
2017-05-05T12:01:49.784Z,56.10
2017-05-05T12:04:16.720Z,55.00
2017-05-05T12:06:43.334Z,54.70
2017-05-05T12:09:11.123Z,55.90
2017-05-05T12:11:38.086Z,56.00
2017-05-05T12:14:05.113Z,55.20
2017-05-05T12:16:32.056Z,54.10
2017-05-05T12:18:59.076Z,53.20
2017-05-05T12:21:26.795Z,55.20
2017-05-05T12:23:53.731Z,54.30
2017-05-05T12:26:20.702Z,52.50
2017-05-05T12:28:48.373Z,52.00
2017-05-05T12:31:15.603Z,48.70
2017-05-05T12:33:43.028Z,48.30
2017-05-05T12:36:10.374Z,48.10
2017-05-05T12:38:38.162Z,48.10
2017-05-05T12:41:05.820Z,48.90
2017-05-05T12:43:32.874Z,50.10
2017-05-05T12:45:59.882Z,52.20
2017-05-05T12:48:27.676Z,52.50
2017-05-05T12:50:54.702Z,54.10
2017-05-05T12:53:21.642Z,55.40
2017-05-05T12:55:48.641Z,54.20
2017-05-05T12:58:15.574Z,55.20
2017-05-05T13:00:43.597Z,54.80
2017-05-05T13:03:11.345Z,58.00
2017-05-05T13:05:38.292Z,57.30
2017-05-05T13:08:06.279Z,57.80
2017-05-05T13:10:35.119Z,56.20
2017-05-05T13:13:02.381Z,57.90
2017-05-05T13:15:29.419Z,58.50
2017-05-05T13:17:56.376Z,58.10
2017-05-05T13:20:23.369Z,57.00
2017-05-05T13:22:51.186Z,57.40
2017-05-05T13:25:18.137Z,58.00
2017-05-05T13:27:45.215Z,56.10
2017-05-05T13:30:12.191Z,57.10
2017-05-05T13:32:39.890Z,58.40
2017-05-05T13:35:06.825Z,59.00
2017-05-05T13:37:33.824Z,58.60
2017-05-05T13:40:00.784Z,57.30
2017-05-05T13:42:27.704Z,56.00
2017-05-05T13:44:54.646Z,57.10
2017-05-05T13:47:23.164Z,55.60
2017-05-05T13:49:50.126Z,57.40
2017-05-05T13:52:17.100Z,56.40
2017-05-05T13:54:44.073Z,58.60
2017-05-05T13:57:11.962Z,56.80
2017-05-05T13:59:38.935Z,56.20
2017-05-05T14:02:05.915Z,56.40
2017-05-05T14:04:32.884Z,58.10
2017-05-05T14:06:59.913Z,57.50
2017-05-05T14:09:26.861Z,58.00
2017-05-05T14:11:53.814Z,58.50
2017-05-05T14:14:20.759Z,58.50
2017-05-05T14:16:47.721Z,57.60
2017-05-05T14:19:15.449Z,58.40
2017-05-05T14:21:42.430Z,57.10
2017-05-05T14:24:09.383Z,57.20
2017-05-05T14:26:36.394Z,57.60
2017-05-05T14:29:03.347Z,58.20
2017-05-05T14:31:30.272Z,58.20
2017-05-05T14:33:57.243Z,58.80
2017-05-05T14:36:24.250Z,57.00
2017-05-05T14:38:51.246Z,57.50
2017-05-05T14:41:18.233Z,57.80
2017-05-05T14:43:46.216Z,58.60
2017-05-05T14:46:13.476Z,57.50
2017-05-05T14:48:40.500Z,57.10
2017-05-05T14:51:08.331Z,58.60
2017-05-05T14:53:35.323Z,57.20
2017-05-05T14:56:02.306Z,58.30
2017-05-05T14:58:29.325Z,57.80
2017-05-05T15:00:56.312Z,58.70
2017-05-05T15:03:23.607Z,57.80
2017-05-05T15:05:51.315Z,56.80
2017-05-05T15:08:18.312Z,56.60
2017-05-05T15:10:46.665Z,57.70
2017-05-05T15:13:13.609Z,56.00
2017-05-05T15:15:40.573Z,55.80
2017-05-05T15:18:07.542Z,56.10
2017-05-05T15:20:35.906Z,56.20
2017-05-05T15:23:02.895Z,56.70
2017-05-05T15:25:29.873Z,56.60
2017-05-05T15:27:56.833Z,57.00
2017-05-05T15:30:23.813Z,54.90
2017-05-05T15:32:51.494Z,55.90
2017-05-05T15:35:18.459Z,54.80
2017-05-05T15:37:45.531Z,56.30
2017-05-05T15:40:12.159Z,55.00
2017-05-05T15:42:39.476Z,54.80
2017-05-05T15:45:21.361Z,55.50
2017-05-05T15:47:48.373Z,55.30
2017-05-05T15:50:15.357Z,57.20
2017-05-05T15:52:42.347Z,56.70
2017-05-05T15:55:09.346Z,56.60
2017-05-05T15:57:37.162Z,55.90
2017-05-05T16:00:04.131Z,56.40
2017-05-05T16:02:31.082Z,56.50
2017-05-05T16:04:59.024Z,56.20
2017-05-05T16:07:26.005Z,56.40
2017-05-05T16:09:52.952Z,56.80
2017-05-05T16:12:20.680Z,56.90
2017-05-05T16:14:47.660Z,56.70
2017-05-05T16:17:14.712Z,57.20
2017-05-05T16:19:56.252Z,56.30
2017-05-05T16:22:23.182Z,58.40
2017-05-05T16:24:50.221Z,57.00
2017-05-05T16:27:17.201Z,57.20
2017-05-05T16:29:44.166Z,56.50
2017-05-05T16:32:11.141Z,57.30
2017-05-05T16:34:39.118Z,57.00
2017-05-05T16:37:07.731Z,56.70
2017-05-05T16:39:35.566Z,57.50
2017-05-05T16:42:02.532Z,57.40
2017-05-05T16:44:29.499Z,57.00
2017-05-05T16:46:56.469Z,57.10
2017-05-05T16:49:23.415Z,58.40
2017-05-05T16:51:50.405Z,57.10
2017-05-05T16:54:18.114Z,57.60
2017-05-05T16:56:45.062Z,57.60
2017-05-05T16:59:13.015Z,57.10
2017-05-05T17:01:39.976Z,58.20
2017-05-05T17:04:08.282Z,58.10
2017-05-05T17:06:35.290Z,58.50
2017-05-05T17:09:02.313Z,58.90
2017-05-05T17:11:29.564Z,58.70
2017-05-05T17:13:56.568Z,58.70
2017-05-05T17:16:23.645Z,58.80
2017-05-05T17:18:50.235Z,58.50
2017-05-05T17:21:17.244Z,58.50
2017-05-05T17:23:44.187Z,59.10
2017-05-05T17:26:11.225Z,59.30
2017-05-05T17:28:39.112Z,59.00
2017-05-05T17:31:06.292Z,59.80
2017-05-05T17:33:33.283Z,60.30
2017-05-05T17:36:01.126Z,59.80
2017-05-05T17:38:28.215Z,60.60
2017-05-05T17:40:56.187Z,61.00
2017-05-05T17:43:27.276Z,61.30
2017-05-05T17:45:54.456Z,61.60
2017-05-05T17:48:21.503Z,61.20
2017-05-05T17:50:48.607Z,63.00
2017-05-05T17:53:23.039Z,61.30
2017-05-05T17:55:55.064Z,61.80
2017-05-05T17:58:22.868Z,62.70
2017-05-05T18:00:50.811Z,61.80
2017-05-05T18:03:28.912Z,61.20
2017-05-05T18:05:56.140Z,61.60
2017-05-05T18:08:23.851Z,61.30
2017-05-05T18:10:50.830Z,60.90
2017-05-05T18:13:17.794Z,61.70
2017-05-05T18:15:46.463Z,61.70
2017-05-05T18:18:13.472Z,62.30
2017-05-05T18:20:40.481Z,61.20
2017-05-05T18:23:09.186Z,61.40
2017-05-05T18:25:36.166Z,61.80
2017-05-05T18:28:03.123Z,61.30
2017-05-05T18:30:30.076Z,62.40
2017-05-05T18:32:57.631Z,62.50
2017-05-05T18:35:24.589Z,62.20
2017-05-05T18:37:51.556Z,62.80
2017-05-05T18:40:19.298Z,62.50
2017-05-05T18:42:46.330Z,63.00
2017-05-05T18:45:13.307Z,63.60
2017-05-05T18:47:40.268Z,64.00
2017-05-05T18:50:07.990Z,63.90
2017-05-05T18:52:34.991Z,64.00
2017-05-05T18:55:02.770Z,64.20
2017-05-05T18:57:29.840Z,64.40
2017-05-05T18:59:56.813Z,65.00
2017-05-05T19:02:23.794Z,64.80
2017-05-05T19:04:51.531Z,64.90
2017-05-05T19:07:18.562Z,64.60
2017-05-05T19:09:46.690Z,64.90
2017-05-05T19:12:13.758Z,65.50
2017-05-05T19:14:40.908Z,66.10
2017-05-05T19:17:07.866Z,65.90
2017-05-05T19:19:34.933Z,66.50
2017-05-05T19:22:01.960Z,66.50
2017-05-05T19:24:28.949Z,66.00
2017-05-05T19:26:56.701Z,67.40
2017-05-05T19:29:23.657Z,66.60
2017-05-05T19:31:50.685Z,68.00
2017-05-05T19:34:17.738Z,68.10
2017-05-05T19:36:44.834Z,68.40
2017-05-05T19:39:12.047Z,68.10
2017-05-05T19:41:39.083Z,68.10
2017-05-05T19:44:06.129Z,68.10
2017-05-05T19:46:33.158Z,68.50
2017-05-05T19:49:00.209Z,69.00
2017-05-05T19:51:27.365Z,68.80
2017-05-05T19:53:54.505Z,69.00
2017-05-05T19:56:21.768Z,68.80
2017-05-05T19:58:48.953Z,68.80
2017-05-05T20:01:15.990Z,69.50
2017-05-05T20:03:42.985Z,69.30
2017-05-05T20:06:10.058Z,69.30
2017-05-05T20:08:37.321Z,69.90
2017-05-05T20:11:04.537Z,70.20
2017-05-05T20:13:31.531Z,69.80
2017-05-05T20:15:58.620Z,70.00
2017-05-05T20:18:25.612Z,70.00
2017-05-05T20:20:52.654Z,70.60
2017-05-05T20:23:19.277Z,70.60
2017-05-05T20:25:46.303Z,70.60
2017-05-05T20:28:13.293Z,70.80
2017-05-05T20:30:40.295Z,70.80
2017-05-05T20:33:07.283Z,70.50
2017-05-05T20:35:34.248Z,70.60
2017-05-05T20:38:01.230Z,71.10
2017-05-05T20:40:28.970Z,70.80
2017-05-05T20:42:55.973Z,70.60
2017-05-05T20:45:23.205Z,70.70
2017-05-05T20:47:50.168Z,69.50
2017-05-05T20:50:17.159Z,70.70
2017-05-05T20:52:44.158Z,70.10
2017-05-05T20:55:11.795Z,70.00
2017-05-05T20:57:39.595Z,70.50
2017-05-05T21:00:07.519Z,70.40
2017-05-05T21:02:35.484Z,71.10
2017-05-05T21:05:03.260Z,70.00
2017-05-05T21:07:30.466Z,70.10
2017-05-05T21:09:57.565Z,70.90
2017-05-05T21:12:25.464Z,70.80
2017-05-05T21:14:52.463Z,70.80
2017-05-05T21:27:04.506Z,72.20
2017-05-05T21:29:31.708Z,72.30
2017-05-05T21:31:58.738Z,72.00
2017-05-05T21:34:26.444Z,72.30
2017-05-05T21:36:53.850Z,73.30
2017-05-05T21:39:21.616Z,71.60
2017-05-05T21:41:50.054Z,72.20
2017-05-05T21:44:17.042Z,72.30
2017-05-05T21:46:44.067Z,72.50
2017-05-05T21:49:11.072Z,72.50
2017-05-05T21:51:38.090Z,72.60
2017-05-05T21:54:06.843Z,72.20
2017-05-05T21:56:33.879Z,72.60
2017-05-05T21:59:00.853Z,73.40
2017-05-05T22:01:27.918Z,72.90
2017-05-05T22:03:55.916Z,72.90
2017-05-05T22:06:22.908Z,73.00
2017-05-05T22:08:49.873Z,72.60
2017-05-05T22:11:16.891Z,72.80
2017-05-05T22:13:43.820Z,73.10
2017-05-05T22:16:10.808Z,73.10
2017-05-05T22:18:38.284Z,73.40
2017-05-05T22:21:06.020Z,73.70
2017-05-05T22:23:33.006Z,73.50
2017-05-05T22:26:00.748Z,73.60
2017-05-05T22:28:27.728Z,74.00
2017-05-05T22:30:54.740Z,73.90
2017-05-05T22:33:21.726Z,74.50
2017-05-05T22:35:48.752Z,74.30
2017-05-05T22:38:16.518Z,74.50
2017-05-05T22:40:46.119Z,74.40
2017-05-05T22:43:13.940Z,74.30
2017-05-05T22:45:40.972Z,74.30
2017-05-05T22:48:07.954Z,74.70
2017-05-05T22:50:34.942Z,74.50
2017-05-05T22:53:01.915Z,74.40
2017-05-05T22:55:28.955Z,74.60
2017-05-05T22:57:55.948Z,74.50
2017-05-05T23:00:23.079Z,74.50
2017-05-05T23:02:50.017Z,74.10
2017-05-05T23:05:18.439Z,74.50
2017-05-05T23:07:46.192Z,74.50
2017-05-05T23:10:13.224Z,73.70
2017-05-05T23:12:40.234Z,74.00
2017-05-05T23:15:08.154Z,74.40
2017-05-05T23:17:36.119Z,74.30
2017-05-05T23:20:03.145Z,74.80
2017-05-05T23:22:30.087Z,74.30
2017-05-05T23:24:57.126Z,74.30
2017-05-05T23:27:24.047Z,74.30
2017-05-05T23:29:51.063Z,74.60
2017-05-05T23:32:18.063Z,74.30
2017-05-05T23:34:45.035Z,74.30
2017-05-05T23:37:12.060Z,74.80
2017-05-05T23:39:39.018Z,74.60
2017-05-05T23:42:05.940Z,74.70
2017-05-05T23:44:32.901Z,75.40
2017-05-05T23:46:59.924Z,75.50
2017-05-05T23:49:27.863Z,75.30
2017-05-05T23:51:55.591Z,75.30
